Terminal Aerodrome Forecast
Issued by NWS

Home | Current Version | Previous Version | Text Only | Print | Product List | Glossary On
Versions: 1 2 3 4 5 6 7 8 9 10 11 12 13 14 15 16
000
FTUS46 KLOX 181700 RRA
TAFPRB
TAF
KPRB 181740Z 1818/1918 VRB03KT P6SM BKN012
     FM181830 21008KT P6SM SCT100
     FM182200 22012G20KT P6SM SCT100
     FM190300 21008KT P6SM SCT080
     FM190500 VRB03KT P6SM SCT080
     FM191300 VRB03KT 4SM BR BKN006=

USA.gov is the U.S. government's official web portal to all federal, state and local government web resources and services.